Time;durP1;ratioP1;P1;durP2;ratioP2;P2;SDS_P1;SDS_P2;PMS_P1;PMS_P2;Temp;Humidity;BMP_temperature;BMP_pressure;BME280_temperature;BME280_humidity;BME280_pressure;Samples;Min_cycle;Max_cycle;Signal;HPM_P1;HPM_P2
2022/09/09 00:04:37;;;;;;;25.15;13.70;;;;;;;14.31;81.27;100611.06;10290965;28;20488;-70
2022/09/09 00:09:48;;;;;;;22.23;11.52;;;;;;;13.90;82.32;100552.78;10289952;28;20038;-70
2022/09/09 00:15:14;;;;;;;20.05;9.60;;;;;;;14.39;83.85;100626.19;10291436;28;20186;-70
2022/09/09 00:20:24;;;;;;;30.38;9.23;;;;;;;14.27;81.95;100609.78;10284760;28;20082;-70
2022/09/09 00:25:34;;;;;;;19.38;8.63;;;;;;;14.09;83.12;100612.84;10290666;28;20043;-70
2022/09/09 00:30:36;;;;;;;20.98;9.18;;;;;;;14.10;81.19;100627.03;10289411;28;20042;-70
2022/09/09 00:35:39;;;;;;;13.55;9.05;;;;;;;14.06;81.82;100633.72;10291663;28;20058;-70
2022/09/09 00:40:47;;;;;;;13.63;8.50;;;;;;;14.00;81.79;100613.94;10290334;28;20043;-70
2022/09/09 00:46:18;;;;;;;21.92;9.88;;;;;;;14.01;84.36;100631.63;10291480;28;20424;-70
2022/09/09 00:51:21;;;;;;;29.40;14.25;;;;;;;13.86;83.02;100644.13;10290943;28;20046;-70
2022/09/09 00:56:30;;;;;;;25.83;11.13;;;;;;;13.64;83.73;100657.34;10290521;28;20046;-70
2022/09/09 01:01:31;;;;;;;24.23;9.07;;;;;;;13.42;83.39;100655.53;10291216;28;20054;-70
2022/09/09 01:06:36;;;;;;;10.13;6.50;;;;;;;13.34;84.75;100667.09;10290701;28;20053;-70
2022/09/09 01:11:59;;;;;;;17.13;5.45;;;;;;;13.26;87.09;100651.16;10290523;28;20035;-70
2022/09/09 01:17:09;;;;;;;6.30;4.60;;;;;;;13.26;85.64;100669.00;10294103;28;20053;-70
2022/09/09 01:22:11;;;;;;;8.70;4.07;;;;;;;13.13;83.95;100677.53;10296223;28;20035;-70
2022/09/09 01:27:15;;;;;;;10.77;4.40;;;;;;;13.21;83.96;100683.66;10294231;28;20446;-70
2022/09/09 01:32:45;;;;;;;11.32;4.43;;;;;;;13.22;84.96;100682.66;10296986;28;20071;-70
2022/09/09 01:37:46;;;;;;;9.48;4.22;;;;;;;12.69;82.26;100614.16;10296800;28;20141;-70
2022/09/09 01:42:47;;;;;;;21.25;4.75;;;;;;;12.87;81.75;100660.03;10296011;28;20193;-70
2022/09/09 01:47:48;;;;;;;44.67;6.28;;;;;;;12.24;81.22;100584.56;10296437;28;20167;-70
2022/09/09 01:52:57;;;;;;;43.90;6.00;;;;;;;12.60;81.96;100652.53;10296673;28;20043;-70
2022/09/09 01:58:00;;;;;;;58.30;6.38;;;;;;;12.73;81.12;100682.91;10294065;28;20059;-71
2022/09/09 02:03:27;;;;;;;67.47;7.00;;;;;;;12.32;82.46;100624.50;10295577;28;20050;-70
2022/09/09 02:08:37;;;;;;;76.78;8.95;;;;;;;12.69;82.40;100694.94;10295675;28;20039;-70
2022/09/09 02:13:39;;;;;;;107.00;10.23;;;;;;;12.61;80.46;100670.97;10295217;28;20517;-73
2022/09/09 02:18:45;;;;;;;20.27;6.47;;;;;;;12.50;81.39;100688.19;10295497;28;20451;-70
2022/09/09 02:23:51;;;;;;;72.32;8.00;;;;;;;11.97;80.62;100617.78;10294841;28;20134;-70
2022/09/09 02:28:57;;;;;;;18.05;9.43;;;;;;;12.32;80.71;100693.75;10293424;28;20117;-70
2022/09/09 02:34:01;;;;;;;55.67;7.88;;;;;;;12.24;80.28;100693.75;10294317;28;20435;-70
2022/09/09 02:39:05;;;;;;;31.50;7.97;;;;;;;12.30;80.24;100705.56;10293204;28;20047;-70
2022/09/09 02:44:11;;;;;;;14.27;5.37;;;;;;;12.28;80.39;100723.56;10294506;28;20053;-70
2022/09/09 02:49:40;;;;;;;52.00;8.23;;;;;;;12.34;81.05;100718.38;10294023;28;20509;-70
2022/09/09 02:54:42;;;;;;;81.20;10.18;;;;;;;12.23;79.57;100709.91;10292538;28;20039;-71
2022/09/09 02:59:44;;;;;;;135.55;11.45;;;;;;;12.13;79.76;100714.59;10292910;28;20051;-69
2022/09/09 03:04:50;;;;;;;57.13;7.78;;;;;;;12.28;79.45;100729.69;10274848;28;20097;-68
2022/09/09 03:09:52;;;;;;;19.15;5.50;;;;;;;12.16;79.09;100715.09;10291611;28;20415;-68
2022/09/09 03:14:53;;;;;;;43.55;7.28;;;;;;;12.41;79.78;100745.16;10292289;28;20034;-69
2022/09/09 03:19:54;;;;;;;52.13;5.93;;;;;;;12.62;79.16;100741.94;10291644;28;20140;-69
2022/09/09 03:24:55;;;;;;;69.75;7.65;;;;;;;12.84;78.26;100735.03;10292646;28;20517;-69
2022/09/09 03:29:57;;;;;;;27.58;5.00;;;;;;;13.10;76.76;100733.91;10292612;28;20049;-69
2022/09/09 03:34:58;;;;;;;12.77;4.07;;;;;;;13.60;74.45;100767.34;10292629;28;20089;-70
2022/09/09 03:39:59;;;;;;;75.50;7.25;;;;;;;14.01;72.60;100695.72;10292581;28;20096;-72
2022/09/09 03:45:00;;;;;;;69.18;6.40;;;;;;;15.11;69.56;100736.94;10291900;28;20508;-69
2022/09/09 03:50:01;;;;;;;15.85;3.70;;;;;;;15.85;66.75;100758.13;10290240;28;20043;-69
2022/09/09 03:55:02;;;;;;;8.95;3.60;;;;;;;16.65;63.42;100759.53;10290823;28;20514;-69
2022/09/09 04:00:04;;;;;;;25.75;3.95;;;;;;;17.49;59.91;100753.09;10292323;28;20122;-69
2022/09/09 04:05:06;;;;;;;17.83;4.00;;;;;;;17.85;58.60;100746.56;10291674;28;20046;-68
2022/09/09 04:10:08;;;;;;;14.40;3.30;;;;;;;17.98;56.84;100701.69;10289250;28;20046;-69
2022/09/09 04:15:10;;;;;;;18.00;3.47;;;;;;;19.10;54.37;100747.38;10290107;28;20129;-70
2022/09/09 04:20:12;;;;;;;17.30;3.63;;;;;;;19.81;52.66;100740.97;10289417;28;20074;-69
2022/09/09 04:25:13;;;;;;;13.85;3.25;;;;;;;20.12;50.63;100728.47;10291536;28;20038;-71
2022/09/09 04:30:13;;;;;;;25.38;3.20;;;;;;;20.43;49.20;100660.06;10291086;28;20043;-71
2022/09/09 04:35:14;;;;;;;18.45;2.65;;;;;;;21.19;45.70;100732.47;10290367;28;20137;-73
2022/09/09 04:40:15;;;;;;;12.88;2.30;;;;;;;20.63;44.55;100727.34;10290273;28;20050;-70
2022/09/09 04:45:16;;;;;;;18.80;3.00;;;;;;;19.94;45.06;100746.25;10290632;28;20046;-68
2022/09/09 04:50:17;;;;;;;20.75;2.60;;;;;;;19.58;44.79;100749.59;10292570;28;20035;-71
2022/09/09 04:55:18;;;;;;;9.57;2.00;;;;;;;19.32;44.67;100745.19;10298511;28;20047;-70
2022/09/09 05:00:19;;;;;;;12.15;2.45;;;;;;;18.84;44.82;100730.28;10298065;28;20495;-70
2022/09/09 05:05:20;;;;;;;19.70;2.70;;;;;;;19.05;44.12;100745.31;10297717;28;20513;-70
2022/09/09 05:10:21;;;;;;;9.38;2.17;;;;;;;19.21;43.88;100743.19;10298539;28;20039;-70
2022/09/09 05:15:22;;;;;;;14.02;2.63;;;;;;;19.39;43.50;100724.44;10297701;28;20052;-70
2022/09/09 05:20:23;;;;;;;7.60;1.80;;;;;;;19.60;42.93;100747.50;10296874;28;20050;-70
2022/09/09 05:25:25;;;;;;;30.15;3.30;;;;;;;19.97;42.93;100751.19;10296829;28;20407;-70
2022/09/09 05:30:26;;;;;;;10.18;2.30;;;;;;;20.14;42.27;100758.75;10297007;28;20035;-71
2022/09/09 05:35:27;;;;;;;14.00;2.60;;;;;;;19.69;43.04;100727.38;10297182;28;20113;-70
2022/09/09 05:40:28;;;;;;;11.63;2.28;;;;;;;19.59;42.30;100692.78;10296630;28;20097;-70
2022/09/09 05:45:28;;;;;;;9.93;2.25;;;;;;;20.39;41.66;100762.22;10296639;28;20042;-71
2022/09/09 05:50:29;;;;;;;7.57;1.77;;;;;;;20.60;40.83;100741.31;10296384;28;20101;-71
2022/09/09 05:55:31;;;;;;;7.80;2.53;;;;;;;20.74;40.87;100762.53;10296444;28;20138;-70
2022/09/09 06:00:31;;;;;;;11.75;2.40;;;;;;;21.02;40.55;100755.75;10295457;28;20090;-71
2022/09/09 06:05:32;;;;;;;13.00;2.55;;;;;;;20.61;40.26;100634.97;10295788;28;20049;-69
2022/09/09 06:10:33;;;;;;;9.55;2.28;;;;;;;21.40;39.83;100735.75;10295801;28;20549;-69
2022/09/09 06:15:35;;;;;;;15.07;1.98;;;;;;;21.79;40.48;100763.25;10295396;28;20039;-69
2022/09/09 06:20:36;;;;;;;9.52;2.42;;;;;;;22.04;40.28;100760.34;10294564;28;20101;-69
2022/09/09 06:25:39;;;;;;;10.38;2.20;;;;;;;22.24;39.63;100755.44;10294426;28;20069;-69
2022/09/09 06:30:40;;;;;;;7.88;2.30;;;;;;;22.45;39.00;100770.28;10295503;28;20115;-69
2022/09/09 06:35:40;;;;;;;6.95;2.13;;;;;;;;;;10294772;28;20659;-71
2022/09/09 06:40:41;;;;;;;7.53;2.30;;;;;;;23.07;38.40;100731.81;10294423;28;20053;-70
2022/09/09 06:45:42;;;;;;;6.05;2.03;;;;;;;23.55;37.76;100765.75;10294198;28;20546;-69
2022/09/09 06:50:42;;;;;;;7.70;2.53;;;;;;;23.67;36.80;100765.72;10293527;28;20046;-69
2022/09/09 06:55:44;;;;;;;12.45;2.35;;;;;;;23.78;36.08;100759.44;10292704;28;20038;-71
2022/09/09 07:00:45;;;;;;;12.00;2.53;;;;;;;24.03;35.57;100753.59;10294041;28;20439;-69
2022/09/09 07:05:55;;;;;;;12.63;2.33;;;;;;;24.23;34.56;100758.50;10292919;28;20074;-69
2022/09/09 07:11:04;;;;;;;12.32;2.55;;;;;;;24.51;33.65;100765.72;10293444;28;20126;-70
2022/09/09 07:16:07;;;;;;;19.20;3.00;;;;;;;24.80;34.90;100752.00;10292817;28;20070;-69
2022/09/09 07:21:10;;;;;;;9.43;2.17;;;;;;;24.99;34.38;100775.06;10292968;28;20078;-70
2022/09/09 07:26:16;;;;;;;18.05;2.58;;;;;;;25.05;33.47;100746.03;10293087;28;20038;-69
2022/09/09 07:31:22;;;;;;;13.77;2.30;;;;;;;25.27;31.97;100746.03;10294043;28;20050;-69
2022/09/09 07:36:34;;;;;;;25.53;3.17;;;;;;;25.77;31.81;100754.94;10292739;28;20065;-72
2022/09/09 07:41:46;;;;;;;11.50;2.15;;;;;;;26.18;30.60;100745.22;10291808;28;20495;-69
2022/09/09 07:46:48;;;;;;;11.38;1.88;;;;;;;26.11;30.23;100725.56;10292239;28;20553;-69
2022/09/09 07:51:49;;;;;;;3.67;1.80;;;;;;;25.63;29.77;100657.41;10291514;28;20545;-68
2022/09/09 07:56:51;;;;;;;7.50;2.10;;;;;;;26.14;28.85;100738.66;10291830;28;20070;-68
2022/09/09 08:01:54;;;;;;;7.20;2.05;;;;;;;25.95;29.28;100724.63;10290771;28;20073;-69
2022/09/09 08:06:58;;;;;;;18.07;2.33;;;;;;;25.90;29.51;100717.25;10291751;28;20046;-69
2022/09/09 08:12:00;;;;;;;18.65;2.35;;;;;;;26.28;29.15;100700.88;10291680;28;20066;-69
2022/09/09 08:17:01;;;;;;;17.60;2.03;;;;;;;26.59;29.44;100700.00;10291539;28;20403;-70
2022/09/09 08:22:03;;;;;;;9.40;2.10;;;;;;;26.34;28.73;100667.16;10291428;28;20050;-73
2022/09/09 08:27:03;;;;;;;10.70;2.10;;;;;;;25.92;29.23;100676.16;10296203;28;20053;-69
2022/09/09 08:32:04;;;;;;;5.97;1.80;;;;;;;25.30;29.56;100663.13;10299366;28;20434;-68
2022/09/09 08:37:05;;;;;;;23.42;2.90;;;;;;;25.83;30.63;100681.28;10298546;28;20062;-69
2022/09/09 08:42:41;;;;;;;12.55;1.88;;;;;;;26.50;27.68;100681.69;10298413;28;20181;-69
2022/09/09 08:48:00;;;;;;;7.75;2.22;;;;;;;26.72;28.10;100685.06;10298402;28;20042;-69
2022/09/09 08:53:24;;;;;;;8.27;1.90;;;;;;;26.83;27.29;100683.16;10298679;28;20069;-68
2022/09/09 08:58:34;;;;;;;5.20;1.83;;;;;;;27.04;26.96;100684.03;10298417;28;20053;-70
2022/09/09 09:03:52;;;;;;;10.60;2.10;;;;;;;27.54;25.66;100677.84;10298207;28;20038;-69
2022/09/09 09:09:01;;;;;;;13.35;2.30;;;;;;;27.61;26.14;100676.75;10296322;28;20467;-69
2022/09/09 09:14:09;;;;;;;7.78;1.70;;;;;;;27.67;25.52;100692.03;10297396;28;20043;-69
2022/09/09 09:19:16;;;;;;;8.80;2.28;;;;;;;27.67;25.23;100690.16;10297033;28;20046;-70
2022/09/09 09:24:32;;;;;;;9.95;1.92;;;;;;;26.93;26.10;100641.50;10297353;28;20491;-69
2022/09/09 09:29:34;;;;;;;8.40;2.50;;;;;;;26.45;26.49;100608.09;10297290;28;20038;-68
2022/09/09 09:34:35;;;;;;;9.75;2.03;;;;;;;26.73;26.54;100680.41;10296616;28;20091;-67
2022/09/09 09:39:38;;;;;;;6.53;2.00;;;;;;;26.51;26.58;100635.13;10294104;28;20503;-70
2022/09/09 09:44:39;;;;;;;14.43;2.43;;;;;;;27.25;26.02;100688.50;10293936;28;20134;-70
2022/09/09 09:49:50;;;;;;;8.57;1.95;;;;;;;27.41;25.76;100672.13;10294408;28;20558;-69
2022/09/09 09:54:52;;;;;;;21.38;3.38;;;;;;;27.51;26.85;100666.66;10293089;28;20098;-69
2022/09/09 10:00:17;;;;;;;18.85;2.55;;;;;;;27.92;25.63;100697.53;10294384;28;20412;-70
2022/09/09 10:05:21;;;;;;;8.15;2.22;;;;;;;28.00;25.20;100679.78;10293240;28;20031;-68
2022/09/09 10:10:33;;;;;;;14.20;2.28;;;;;;;27.85;25.09;100668.84;10293484;28;20108;-69
2022/09/09 10:16:15;;;;;;;11.90;2.27;;;;;;;27.93;25.36;100681.94;10293657;28;20491;-69
2022/09/09 10:21:22;;;;;;;10.55;2.35;;;;;;;27.44;25.41;100677.88;10292759;28;20507;-68
2022/09/09 10:26:44;;;;;;;11.30;2.50;;;;;;;27.44;24.99;100668.88;10293167;28;20057;-68
2022/09/09 10:31:56;;;;;;;7.88;2.38;;;;;;;27.43;26.00;100670.78;10292482;28;20480;-69
2022/09/09 10:36:58;;;;;;;15.95;2.35;;;;;;;27.47;25.31;100630.94;10236876;28;1615861;-68
2022/09/09 10:42:07;;;;;;;12.20;2.17;;;;;;;27.23;25.18;100657.94;10294307;28;20058;-68
2022/09/09 10:47:23;;;;;;;17.67;2.20;;;;;;;26.14;25.84;100607.94;10294711;28;20047;-68
2022/09/09 10:52:39;;;;;;;6.93;2.20;;;;;;;26.33;25.88;100668.25;10294579;28;20045;-69
2022/09/09 10:57:53;;;;;;;9.13;2.60;;;;;;;26.63;25.83;100659.41;10293945;28;20550;-69
2022/09/09 11:03:02;;;;;;;6.55;1.70;;;;;;;27.17;24.93;100647.31;10294156;28;20043;-69
2022/09/09 11:08:17;;;;;;;4.70;1.60;;;;;;;26.55;25.55;100602.72;10292998;28;20416;-68
2022/09/09 11:13:34;;;;;;;11.60;2.00;;;;;;;27.03;25.49;100655.97;10293362;28;20050;-68
2022/09/09 11:18:40;;;;;;;7.80;1.90;;;;;;;26.12;25.67;100596.53;10292612;28;20039;-69
2022/09/09 11:23:47;;;;;;;7.55;1.58;;;;;;;26.49;25.78;100645.44;10292937;28;20051;-68
2022/09/09 11:29:11;;;;;;;5.82;1.48;;;;;;;27.00;25.66;100634.69;10292828;28;20043;-68
2022/09/09 11:34:42;;;;;;;8.70;2.22;;;;;;;26.94;25.45;100646.69;10292657;28;20063;-68
2022/09/09 11:39:58;;;;;;;8.55;1.60;;;;;;;26.81;25.25;100631.66;10292965;28;20055;-68
2022/09/09 11:45:11;;;;;;;11.25;1.75;;;;;;;26.70;24.64;100626.44;10292284;28;20063;-70
2022/09/09 11:50:14;;;;;;;7.43;1.57;;;;;;;26.49;25.54;100615.50;10291654;28;20045;-68
2022/09/09 11:55:33;;;;;;;15.98;1.73;;;;;;;26.50;25.31;100556.38;10291312;28;20043;-69
2022/09/09 12:00:44;;;;;;;14.73;1.80;;;;;;;27.10;24.34;100609.34;10273226;28;20491;-71
2022/09/09 12:05:46;;;;;;;7.57;1.65;;;;;;;27.09;24.50;100613.16;10267807;28;20046;-71
2022/09/09 12:11:03;;;;;;;6.65;1.88;;;;;;;27.14;24.18;100612.38;10267676;28;20447;-71
2022/09/09 12:16:05;;;;;;;23.67;2.65;;;;;;;26.72;25.18;100543.34;10267162;28;20061;-73
2022/09/09 12:21:34;;;;;;;17.17;6.03;;;;;;;26.90;24.63;100617.50;10267157;28;20507;-73
2022/09/09 12:26:47;;;;;;;18.67;2.50;;;;;;;26.92;24.09;100624.31;10273947;28;20043;-73
2022/09/09 12:32:10;;;;;;;31.73;4.45;;;;;;;26.99;23.60;100599.53;10245391;28;20055;-75
2022/09/09 12:37:24;;;;;;;16.17;2.67;;;;;;;27.06;23.26;100616.44;10265665;28;20059;-73
2022/09/09 12:42:26;;;;;;;9.05;1.85;;;;;;;26.53;24.43;100536.75;10262779;28;20515;-73
2022/09/09 12:47:37;;;;;;;7.73;1.83;;;;;;;26.41;24.39;100542.41;10269782;28;20082;-73
2022/09/09 12:52:38;;;;;;;13.30;1.73;;;;;;;26.76;24.09;100607.13;10275126;28;20058;-72
2022/09/09 12:57:40;;;;;;;7.70;1.40;;;;;;;26.76;23.98;100623.47;10277440;28;20054;-74
2022/09/09 13:02:55;;;;;;;5.97;1.60;;;;;;;26.68;23.87;100617.72;10273679;28;20396;-73
2022/09/09 13:08:09;;;;;;;9.63;2.20;;;;;;;26.66;23.32;100620.72;10277508;28;20039;-72
2022/09/09 13:13:20;;;;;;;4.78;1.42;;;;;;;26.46;23.64;100604.28;10289292;28;20047;-75
2022/09/09 13:18:25;;;;;;;6.35;1.60;;;;;;;26.57;23.59;100638.69;10300291;28;20612;-71
2022/09/09 13:23:32;;;;;;;6.63;1.60;;;;;;;26.55;23.79;100625.31;10285315;28;20499;-73
2022/09/09 13:28:34;;;;;;;12.35;2.10;;;;;;;26.44;23.99;100625.50;10297316;28;20035;-74
2022/09/09 13:33:37;;;;;;;76.38;5.88;;;;;;;26.35;24.14;100631.47;10296399;28;20055;-74
2022/09/09 13:38:55;;;;;;;;;;;;;;;26.51;24.16;100646.03;10297287;28;20071;-73
2022/09/09 13:43:57;;;;;;;11.05;1.52;;;;;;;26.12;23.78;100654.53;10297094;28;19922;-72
2022/09/09 13:49:00;;;;;;;7.15;1.45;;;;;;;26.01;23.69;100650.09;10296275;28;20093;-74
2022/09/09 13:54:01;;;;;;;10.38;1.48;;;;;;;25.91;23.80;100645.41;10296220;28;20126;-72
2022/09/09 13:59:04;;;;;;;4.50;1.30;;;;;;;25.75;24.16;100640.91;10295898;28;20046;-75
2022/09/09 14:04:08;;;;;;;9.32;1.80;;;;;;;25.32;24.86;100591.09;10295404;28;20034;-73
2022/09/09 14:09:14;;;;;;;7.35;1.60;;;;;;;25.33;24.72;100629.97;10295634;28;20038;-74
2022/09/09 14:14:15;;;;;;;5.88;1.33;;;;;;;24.79;25.12;100563.69;10295501;28;20034;-74
2022/09/09 14:19:16;;;;;;;13.30;1.65;;;;;;;25.24;24.73;100654.09;10294612;28;20467;-73
2022/09/09 14:24:17;;;;;;;15.23;2.17;;;;;;;25.05;24.73;100640.84;10294033;28;20088;-73
2022/09/09 14:29:18;;;;;;;17.77;2.60;;;;;;;24.56;25.08;100594.69;10295766;28;20134;-74
2022/09/09 14:34:19;;;;;;;12.05;2.08;;;;;;;23.93;25.13;100528.19;10294709;28;20388;-73
2022/09/09 14:39:19;;;;;;;14.50;2.20;;;;;;;24.44;25.19;100656.47;10294046;28;20051;-73
2022/09/09 14:44:20;;;;;;;9.15;1.75;;;;;;;24.35;25.16;100669.63;10294017;28;20055;-72
2022/09/09 14:49:21;;;;;;;25.13;3.25;;;;;;;24.10;25.37;100672.81;10293090;28;20087;-78
2022/09/09 14:54:22;;;;;;;31.70;3.00;;;;;;;23.73;25.72;100645.41;10290374;28;20038;-72
2022/09/09 14:59:24;;;;;;;14.02;2.40;;;;;;;23.71;25.10;100671.13;10289253;28;20051;-71
2022/09/09 15:04:24;;;;;;;25.13;3.05;;;;;;;23.51;25.51;100664.25;10292263;28;20546;-72
2022/09/09 15:09:25;;;;;;;21.98;3.53;;;;;;;23.33;25.50;100672.63;10275142;28;20081;-72
2022/09/09 15:14:26;;;;;;;33.75;5.00;;;;;;;23.10;25.97;100674.41;10253560;28;20055;-72
2022/09/09 15:19:27;;;;;;;41.88;5.10;;;;;;;22.74;26.19;100662.84;10252472;28;20055;-72
2022/09/09 15:24:28;;;;;;;44.75;9.57;;;;;;;22.63;26.83;100679.97;10251796;28;20117;-71
2022/09/09 15:29:29;;;;;;;91.45;11.27;;;;;;;22.31;27.67;100683.06;10275646;28;20054;-71
2022/09/09 15:34:30;;;;;;;30.73;5.70;;;;;;;21.63;28.49;100640.38;10283257;28;20437;-73
2022/09/09 15:39:31;;;;;;;46.10;6.82;;;;;;;21.53;30.36;100680.66;10284566;28;20051;-72
2022/09/09 15:44:39;;;;;;;87.68;10.73;;;;;;;21.14;32.65;100702.59;10285616;28;20043;-72
2022/09/09 15:49:39;;;;;;;157.73;16.30;;;;;;;20.81;33.26;100705.75;10289511;28;20034;-73
2022/09/09 15:54:42;;;;;;;77.75;9.13;;;;;;;20.46;33.40;100703.66;10265732;28;20435;-71
2022/09/09 15:59:45;;;;;;;103.25;13.00;;;;;;;20.20;35.41;100715.53;10283470;28;20042;-72
2022/09/09 16:04:45;;;;;;;121.70;28.45;;;;;;;19.91;36.28;100727.81;10291518;28;20039;-74
2022/09/09 16:09:46;;;;;;;103.40;21.42;;;;;;;19.52;36.95;100718.94;10284827;28;20039;-74
2022/09/09 16:14:47;;;;;;;86.93;18.13;;;;;;;19.09;37.80;100700.78;10283632;28;20077;-76
2022/09/09 16:19:48;;;;;;;109.57;15.73;;;;;;;19.12;38.72;100754.19;10282182;28;20050;-75
2022/09/09 16:24:48;;;;;;;57.38;12.73;;;;;;;18.96;39.24;100770.81;10264775;28;20047;-73
2022/09/09 16:29:49;;;;;;;51.92;14.25;;;;;;;18.46;39.62;100733.69;10275341;28;20073;-74
2022/09/09 16:34:50;;;;;;;61.40;13.18;;;;;;;18.37;40.31;100759.16;10271886;28;20101;-73
2022/09/09 16:39:51;;;;;;;58.30;13.82;;;;;;;18.25;40.72;100785.03;10266313;28;20050;-75
2022/09/09 16:44:52;;;;;;;71.78;15.65;;;;;;;18.01;41.20;100781.09;10270322;28;20451;-73
2022/09/09 16:49:53;;;;;;;93.60;31.75;;;;;;;17.96;41.46;100807.75;10276179;28;20074;-75
2022/09/09 16:54:54;;;;;;;114.43;40.20;;;;;;;17.84;42.09;100825.53;10295513;28;20686;-71
2022/09/09 16:59:58;;;;;;;117.05;49.40;;;;;;;17.31;42.54;100765.22;10279810;28;20043;-70
2022/09/09 17:04:59;;;;;;;124.93;45.20;;;;;;;17.37;43.04;100798.50;10268753;28;20499;-72
2022/09/09 17:10:00;;;;;;;114.68;41.85;;;;;;;17.29;43.25;100810.25;10289200;28;20046;-72
2022/09/09 17:15:02;;;;;;;71.28;23.65;;;;;;;16.80;42.85;100759.44;10284022;28;20519;-73
2022/09/09 17:20:06;;;;;;;63.17;23.48;;;;;;;17.06;44.18;100825.84;10282726;28;20046;-73
2022/09/09 17:25:07;;;;;;;64.93;12.68;;;;;;;16.84;44.28;100828.63;10279573;28;20078;-71
2022/09/09 17:30:09;;;;;;;53.75;9.77;;;;;;;16.19;44.39;100749.34;10273730;28;20039;-69
2022/09/09 17:35:10;;;;;;;36.22;10.68;;;;;;;16.51;44.33;100839.09;10281373;28;20113;-70
2022/09/09 17:40:11;;;;;;;33.67;8.27;;;;;;;16.08;45.15;100790.06;10274326;28;20109;-71
2022/09/09 17:45:11;;;;;;;35.72;8.98;;;;;;;16.28;45.55;100839.31;10283186;28;20051;-69
2022/09/09 17:50:12;;;;;;;34.22;9.35;;;;;;;16.22;45.74;100858.84;10295407;28;20034;-68
2022/09/09 17:55:14;;;;;;;39.78;9.13;;;;;;;16.08;46.82;100857.06;10296160;28;20049;-71
2022/09/09 18:00:15;;;;;;;91.07;12.57;;;;;;;15.59;48.03;100794.31;10295316;28;20043;-70
2022/09/09 18:05:15;;;;;;;23.52;7.10;;;;;;;15.42;48.23;100785.69;10293861;28;20039;-69
2022/09/09 18:10:16;;;;;;;24.70;6.82;;;;;;;15.78;48.67;100854.50;10294291;28;20133;-71
2022/09/09 18:15:17;;;;;;;41.10;9.15;;;;;;;15.72;49.34;100853.41;10283226;28;20582;-69
2022/09/09 18:20:18;;;;;;;35.05;10.93;;;;;;;15.47;49.72;100820.75;10255629;28;20062;-70
2022/09/09 18:25:19;;;;;;;48.05;15.75;;;;;;;15.60;49.52;100854.06;10273527;28;20165;-70
2022/09/09 18:30:20;;;;;;;43.97;19.58;;;;;;;15.21;48.86;100782.97;10274621;28;20035;-69
2022/09/09 18:35:21;;;;;;;38.90;8.98;;;;;;;15.73;47.63;100854.22;10272268;28;20502;-71
2022/09/09 18:40:22;;;;;;;27.00;8.25;;;;;;;15.88;46.81;100865.72;10268340;28;20066;-70
2022/09/09 18:45:23;;;;;;;26.58;6.70;;;;;;;15.93;46.95;100863.31;10275958;28;20031;-70
2022/09/09 18:50:24;;;;;;;35.03;7.43;;;;;;;15.07;47.72;100725.78;10268989;28;20086;-71
2022/09/09 18:55:24;;;;;;;25.48;7.72;;;;;;;15.78;48.12;100841.09;10292798;28;20049;-68
2022/09/09 19:00:27;;;;;;;25.02;5.32;;;;;;;15.91;47.22;100870.72;10292912;28;20051;-68
2022/09/09 19:05:27;;;;;;;20.30;6.22;;;;;;;15.96;47.71;100873.66;10280572;28;20038;-68
2022/09/09 19:10:30;;;;;;;20.25;5.90;;;;;;;15.95;46.85;100861.28;10279845;28;20039;-68
2022/09/09 19:15:35;;;;;;;27.85;6.20;;;;;;;16.03;47.08;100864.84;10271742;28;20181;-69
2022/09/09 19:20:37;;;;;;;26.17;6.20;;;;;;;15.91;47.23;100862.69;10281194;28;20054;-69
2022/09/09 19:25:37;;;;;;;33.20;6.60;;;;;;;15.96;47.40;100864.78;10292426;28;20043;-69
2022/09/09 19:30:38;;;;;;;48.92;8.60;;;;;;;16.13;48.20;100874.25;10293010;28;20057;-70
2022/09/09 19:35:39;;;;;;;27.23;7.07;;;;;;;15.42;48.69;100774.16;10292614;28;20054;-70
2022/09/09 19:40:41;;;;;;;46.40;7.65;;;;;;;16.00;48.99;100881.31;10292573;28;20496;-70
2022/09/09 19:45:42;;;;;;;69.75;9.55;;;;;;;15.95;48.83;100881.88;10291580;28;20411;-69
2022/09/09 19:50:43;;;;;;;64.43;9.75;;;;;;;15.09;49.17;100747.00;10276665;28;20031;-69
2022/09/09 19:55:44;;;;;;;24.45;7.00;;;;;;;15.89;49.67;100878.13;10251703;28;20047;-70
2022/09/09 20:00:45;;;;;;;46.33;8.63;;;;;;;15.69;49.67;100851.09;10250422;29;20138;-69
2022/09/09 20:05:48;;;;;;;27.60;7.43;;;;;;;15.97;49.07;100877.16;10252114;28;20047;-70
2022/09/09 20:10:53;;;;;;;26.05;7.22;;;;;;;16.03;50.11;100872.88;10251773;28;20134;-70
2022/09/09 20:16:06;;;;;;;71.40;9.43;;;;;;;16.03;51.49;100871.03;10251115;28;20035;-70
2022/09/09 20:21:22;;;;;;;25.27;6.78;;;;;;;15.53;50.79;100814.66;10264261;28;20118;-70
2022/09/09 20:26:27;;;;;;;77.72;9.45;;;;;;;15.61;50.92;100869.91;10259186;28;20519;-69
2022/09/09 20:31:29;;;;;;;29.02;7.30;;;;;;;15.69;50.75;100882.41;10258373;29;20141;-70
2022/09/09 20:36:32;;;;;;;26.95;7.20;;;;;;;15.72;51.08;100871.31;10258483;28;20059;-69
2022/09/09 20:41:35;;;;;;;28.45;7.03;;;;;;;15.66;51.03;100874.72;10258740;28;20053;-69
2022/09/09 20:46:38;;;;;;;38.08;10.95;;;;;;;15.61;50.96;100890.53;10258572;28;20070;-69
2022/09/09 20:51:39;;;;;;;36.30;13.02;;;;;;;15.59;50.52;100879.19;10258775;28;20083;-70
2022/09/09 20:56:41;;;;;;;26.33;9.43;;;;;;;15.50;50.95;100908.75;10258219;28;20111;-73
2022/09/09 21:01:43;;;;;;;23.20;5.22;;;;;;;15.29;50.46;100882.72;10257940;28;20047;-69
2022/09/09 21:06:44;;;;;;;23.33;5.22;;;;;;;15.26;49.87;100909.88;10258507;28;20054;-69
2022/09/09 21:11:46;;;;;;;22.35;5.25;;;;;;;14.97;50.17;100857.16;10258386;28;20159;-69
2022/09/09 21:16:47;;;;;;;21.38;5.32;;;;;;;14.78;50.63;100841.69;10256388;29;20047;-69
2022/09/09 21:21:47;;;;;;;21.13;5.20;;;;;;;15.07;50.76;100913.91;10257272;28;20043;-69
2022/09/09 21:26:48;;;;;;;24.05;5.18;;;;;;;14.49;51.26;100843.25;10256809;28;20047;-69
2022/09/09 21:31:49;;;;;;;27.70;5.70;;;;;;;14.76;51.53;100906.03;10255027;28;20522;-69
2022/09/09 21:36:50;;;;;;;22.98;5.68;;;;;;;14.63;52.18;100916.53;10257290;28;20066;-69
2022/09/09 21:41:51;;;;;;;27.92;5.90;;;;;;;14.54;52.69;100918.44;10257137;28;20055;-69
2022/09/09 21:46:52;;;;;;;24.67;6.45;;;;;;;14.34;53.13;100910.03;10257019;28;20070;-69
2022/09/09 21:51:53;;;;;;;21.40;6.47;;;;;;;13.58;53.58;100804.88;10255425;28;20046;-73
2022/09/09 21:56:54;;;;;;;21.98;7.00;;;;;;;14.20;54.13;100913.47;10255963;28;20102;-70
2022/09/09 22:01:55;;;;;;;23.80;6.10;;;;;;;14.18;53.78;100915.50;10256900;28;20070;-69
2022/09/09 22:06:56;;;;;;;21.08;5.30;;;;;;;14.10;54.09;100913.72;10255590;28;20415;-69
2022/09/09 22:11:57;;;;;;;26.58;4.93;;;;;;;13.53;54.05;100828.59;10290408;28;20102;-69
2022/09/09 22:16:58;;;;;;;23.55;5.25;;;;;;;13.94;54.56;100903.13;10295081;28;20058;-69
2022/09/09 22:21:58;;;;;;;14.48;4.60;;;;;;;13.85;55.63;100905.03;10295603;28;20042;-70
2022/09/09 22:27:00;;;;;;;23.77;5.10;;;;;;;13.75;56.39;100898.22;10294163;28;20066;-69
2022/09/09 22:32:02;;;;;;;19.45;4.88;;;;;;;13.58;57.47;100886.78;10294590;28;20469;-69
2022/09/09 22:37:04;;;;;;;55.70;7.00;;;;;;;13.68;58.01;100909.59;10294051;28;20077;-69
2022/09/09 22:42:06;;;;;;;59.83;7.07;;;;;;;13.63;58.41;100917.28;10294406;28;20089;-69
2022/09/09 22:47:07;;;;;;;28.30;6.63;;;;;;;13.62;59.35;100914.81;10293769;28;20041;-69
2022/09/09 22:52:09;;;;;;;49.83;7.72;;;;;;;13.52;59.66;100907.03;10294981;28;20129;-69
2022/09/09 22:57:10;;;;;;;132.10;9.75;;;;;;;13.50;59.75;100893.00;10284612;28;20550;-69
2022/09/09 23:02:13;;;;;;;39.38;7.32;;;;;;;13.44;59.53;100915.88;10264408;28;20137;-69
2022/09/09 23:07:19;;;;;;;17.08;6.45;;;;;;;12.91;59.83;100844.50;10253674;28;20122;-71